sensor_id;sensor_type;location;lat;lon;timestamp;pressure;altitude;pressure_sealevel;temperature;humidity
77118;BME280;66072;50.238;19.228;2023-05-14T00:01:43;98937.98;;;6.46;70.61
77118;BME280;66072;50.238;19.228;2023-05-14T00:04:11;98938.98;;;6.39;70.80
77118;BME280;66072;50.238;19.228;2023-05-14T00:06:38;98935.73;;;6.32;71.15
77118;BME280;66072;50.238;19.228;2023-05-14T00:09:06;98934.45;;;6.29;72.22
77118;BME280;66072;50.238;19.228;2023-05-14T00:11:34;98933.49;;;6.26;72.50
77118;BME280;66072;50.238;19.228;2023-05-14T00:14:01;98933.41;;;6.22;72.21
77118;BME280;66072;50.238;19.228;2023-05-14T00:16:29;98934.04;;;6.16;72.57
77118;BME280;66072;50.238;19.228;2023-05-14T00:18:57;98928.00;;;6.12;72.75
77118;BME280;66072;50.238;19.228;2023-05-14T00:21:24;98926.10;;;6.06;72.58
77118;BME280;66072;50.238;19.228;2023-05-14T00:23:52;98927.76;;;6.00;72.92
77118;BME280;66072;50.238;19.228;2023-05-14T00:26:19;98928.89;;;5.94;73.43
77118;BME280;66072;50.238;19.228;2023-05-14T00:28:47;98928.30;;;5.88;73.59
77118;BME280;66072;50.238;19.228;2023-05-14T00:31:14;98928.08;;;5.83;73.88
77118;BME280;66072;50.238;19.228;2023-05-14T00:33:42;98930.55;;;5.78;73.96
77118;BME280;66072;50.238;19.228;2023-05-14T00:36:09;98934.22;;;5.72;73.86
77118;BME280;66072;50.238;19.228;2023-05-14T00:38:37;98934.83;;;5.67;74.17
77118;BME280;66072;50.238;19.228;2023-05-14T00:41:05;98934.25;;;5.61;74.29
77118;BME280;66072;50.238;19.228;2023-05-14T00:43:32;98930.44;;;5.56;74.42
77118;BME280;66072;50.238;19.228;2023-05-14T00:46:00;98931.39;;;5.51;74.52
77118;BME280;66072;50.238;19.228;2023-05-14T00:48:28;98927.91;;;5.47;74.67
77118;BME280;66072;50.238;19.228;2023-05-14T00:50:56;98927.29;;;5.44;75.01
77118;BME280;66072;50.238;19.228;2023-05-14T00:53:23;98933.72;;;5.44;75.51
77118;BME280;66072;50.238;19.228;2023-05-14T00:55:51;98929.13;;;5.45;75.50
77118;BME280;66072;50.238;19.228;2023-05-14T00:58:20;98927.60;;;5.45;75.63
77118;BME280;66072;50.238;19.228;2023-05-14T01:00:48;98930.33;;;5.45;75.75
77118;BME280;66072;50.238;19.228;2023-05-14T01:03:18;98927.41;;;5.47;76.08
77118;BME280;66072;50.238;19.228;2023-05-14T01:05:55;98927.55;;;5.49;76.16
77118;BME280;66072;50.238;19.228;2023-05-14T01:08:47;98927.52;;;5.50;76.19
77118;BME280;66072;50.238;19.228;2023-05-14T01:14:23;98922.84;;;5.55;76.47
77118;BME280;66072;50.238;19.228;2023-05-14T01:16:57;98928.37;;;5.58;76.35
77118;BME280;66072;50.238;19.228;2023-05-14T01:19:39;98927.95;;;5.62;76.64
77118;BME280;66072;50.238;19.228;2023-05-14T01:22:07;98924.00;;;5.65;76.60
77118;BME280;66072;50.238;19.228;2023-05-14T01:24:35;98927.73;;;5.66;76.51
77118;BME280;66072;50.238;19.228;2023-05-14T01:27:24;98919.05;;;5.66;76.38
77118;BME280;66072;50.238;19.228;2023-05-14T01:32:38;98925.41;;;5.62;76.56
77118;BME280;66072;50.238;19.228;2023-05-14T01:35:08;98933.64;;;5.59;76.28
77118;BME280;66072;50.238;19.228;2023-05-14T01:37:36;98933.03;;;5.54;76.46
77118;BME280;66072;50.238;19.228;2023-05-14T01:40:05;98934.77;;;5.51;76.61
77118;BME280;66072;50.238;19.228;2023-05-14T01:42:33;98933.52;;;5.46;76.57
77118;BME280;66072;50.238;19.228;2023-05-14T01:45:01;98935.65;;;5.41;76.36
77118;BME280;66072;50.238;19.228;2023-05-14T01:47:29;98933.70;;;5.36;76.66
77118;BME280;66072;50.238;19.228;2023-05-14T01:49:57;98933.95;;;5.32;76.77
77118;BME280;66072;50.238;19.228;2023-05-14T01:52:25;98935.88;;;5.28;76.83
77118;BME280;66072;50.238;19.228;2023-05-14T01:54:52;98934.27;;;5.23;76.91
77118;BME280;66072;50.238;19.228;2023-05-14T01:57:20;98934.89;;;5.17;77.02
77118;BME280;66072;50.238;19.228;2023-05-14T01:59:47;98929.57;;;5.11;77.11
77118;BME280;66072;50.238;19.228;2023-05-14T02:02:15;98927.98;;;5.04;77.18
77118;BME280;66072;50.238;19.228;2023-05-14T02:04:45;98930.65;;;4.97;77.35
77118;BME280;66072;50.238;19.228;2023-05-14T02:07:12;98930.79;;;4.88;77.58
77118;BME280;66072;50.238;19.228;2023-05-14T02:09:40;98929.42;;;4.78;77.96
77118;BME280;66072;50.238;19.228;2023-05-14T02:12:08;98924.62;;;4.71;77.94
77118;BME280;66072;50.238;19.228;2023-05-14T02:14:37;98924.87;;;4.65;78.26
77118;BME280;66072;50.238;19.228;2023-05-14T02:17:05;98921.56;;;4.60;78.24
77118;BME280;66072;50.238;19.228;2023-05-14T02:19:32;98922.49;;;4.55;78.34
77118;BME280;66072;50.238;19.228;2023-05-14T02:22:00;98922.24;;;4.49;78.59
77118;BME280;66072;50.238;19.228;2023-05-14T02:24:27;98919.95;;;4.43;78.79
77118;BME280;66072;50.238;19.228;2023-05-14T02:26:55;98918.98;;;4.41;79.25
77118;BME280;66072;50.238;19.228;2023-05-14T02:29:23;98918.33;;;4.38;79.20
77118;BME280;66072;50.238;19.228;2023-05-14T02:31:50;98913.65;;;4.34;79.47
77118;BME280;66072;50.238;19.228;2023-05-14T02:34:18;98912.33;;;4.32;79.69
77118;BME280;66072;50.238;19.228;2023-05-14T02:36:46;98920.16;;;4.28;79.66
77118;BME280;66072;50.238;19.228;2023-05-14T02:39:13;98923.27;;;4.25;80.29
77118;BME280;66072;50.238;19.228;2023-05-14T02:41:41;98922.23;;;4.25;81.10
77118;BME280;66072;50.238;19.228;2023-05-14T02:44:08;98920.18;;;4.27;80.92
77118;BME280;66072;50.238;19.228;2023-05-14T02:46:36;98916.48;;;4.25;80.60
77118;BME280;66072;50.238;19.228;2023-05-14T02:49:03;98911.77;;;4.22;80.68
77118;BME280;66072;50.238;19.228;2023-05-14T02:51:31;98906.90;;;4.20;80.75
77118;BME280;66072;50.238;19.228;2023-05-14T02:53:59;98907.95;;;4.17;80.38
77118;BME280;66072;50.238;19.228;2023-05-14T02:56:26;98907.64;;;4.15;80.74
77118;BME280;66072;50.238;19.228;2023-05-14T02:58:54;98903.27;;;4.13;80.54
77118;BME280;66072;50.238;19.228;2023-05-14T03:01:22;98900.92;;;4.12;80.46
77118;BME280;66072;50.238;19.228;2023-05-14T03:03:50;98895.70;;;4.09;80.44
77118;BME280;66072;50.238;19.228;2023-05-14T03:06:18;98892.70;;;4.06;80.33
77118;BME280;66072;50.238;19.228;2023-05-14T03:08:46;98891.54;;;4.03;80.73
77118;BME280;66072;50.238;19.228;2023-05-14T03:11:13;98886.46;;;4.03;81.12
77118;BME280;66072;50.238;19.228;2023-05-14T03:13:41;98884.75;;;4.04;81.06
77118;BME280;66072;50.238;19.228;2023-05-14T03:16:09;98885.45;;;4.06;81.14
77118;BME280;66072;50.238;19.228;2023-05-14T03:18:36;98882.72;;;4.07;81.01
77118;BME280;66072;50.238;19.228;2023-05-14T03:21:04;98874.39;;;4.08;81.01
77118;BME280;66072;50.238;19.228;2023-05-14T03:23:31;98874.34;;;4.12;80.89
77118;BME280;66072;50.238;19.228;2023-05-14T03:26:00;98869.19;;;4.17;81.30
77118;BME280;66072;50.238;19.228;2023-05-14T03:28:27;98871.25;;;4.26;81.42
77118;BME280;66072;50.238;19.228;2023-05-14T03:30:55;98869.44;;;4.35;81.34
77118;BME280;66072;50.238;19.228;2023-05-14T03:33:23;98870.46;;;4.45;81.53
77118;BME280;66072;50.238;19.228;2023-05-14T03:35:50;98878.08;;;4.57;81.30
77118;BME280;66072;50.238;19.228;2023-05-14T03:38:18;98883.52;;;4.66;81.41
77118;BME280;66072;50.238;19.228;2023-05-14T03:40:46;98884.91;;;4.74;81.15
77118;BME280;66072;50.238;19.228;2023-05-14T03:43:16;98883.94;;;4.82;80.96
77118;BME280;66072;50.238;19.228;2023-05-14T03:45:46;98875.81;;;4.92;80.92
77118;BME280;66072;50.238;19.228;2023-05-14T03:48:13;98872.08;;;5.02;81.02
77118;BME280;66072;50.238;19.228;2023-05-14T03:50:41;98867.94;;;5.16;81.08
77118;BME280;66072;50.238;19.228;2023-05-14T03:53:09;98859.54;;;5.30;80.92
77118;BME280;66072;50.238;19.228;2023-05-14T03:55:36;98855.03;;;5.43;80.91
77118;BME280;66072;50.238;19.228;2023-05-14T03:58:04;98863.26;;;5.56;80.51
77118;BME280;66072;50.238;19.228;2023-05-14T04:00:31;98864.60;;;5.65;80.33
77118;BME280;66072;50.238;19.228;2023-05-14T04:02:59;98862.08;;;5.73;80.36
77118;BME280;66072;50.238;19.228;2023-05-14T04:05:29;98859.35;;;5.81;80.06
77118;BME280;66072;50.238;19.228;2023-05-14T04:07:56;98860.02;;;5.91;80.05
77118;BME280;66072;50.238;19.228;2023-05-14T04:10:24;98860.84;;;6.01;79.99
77118;BME280;66072;50.238;19.228;2023-05-14T04:12:51;98864.32;;;6.13;80.05
77118;BME280;66072;50.238;19.228;2023-05-14T04:15:19;98865.75;;;6.25;79.84
77118;BME280;66072;50.238;19.228;2023-05-14T04:17:47;98867.03;;;6.35;79.62
77118;BME280;66072;50.238;19.228;2023-05-14T04:20:17;98871.02;;;6.46;79.58
77118;BME280;66072;50.238;19.228;2023-05-14T04:22:45;98869.59;;;6.57;79.16
77118;BME280;66072;50.238;19.228;2023-05-14T04:25:12;98865.30;;;6.65;78.81
77118;BME280;66072;50.238;19.228;2023-05-14T04:27:40;98866.86;;;6.71;78.41
77118;BME280;66072;50.238;19.228;2023-05-14T04:30:10;98868.09;;;6.77;78.55
77118;BME280;66072;50.238;19.228;2023-05-14T04:32:38;98865.77;;;6.81;78.47
77118;BME280;66072;50.238;19.228;2023-05-14T04:35:06;98862.74;;;6.86;78.15
77118;BME280;66072;50.238;19.228;2023-05-14T04:37:34;98863.95;;;6.92;78.07
77118;BME280;66072;50.238;19.228;2023-05-14T04:40:03;98867.06;;;6.97;77.84
77118;BME280;66072;50.238;19.228;2023-05-14T04:42:30;98862.83;;;7.04;77.79
77118;BME280;66072;50.238;19.228;2023-05-14T04:44:58;98867.06;;;7.11;77.74
77118;BME280;66072;50.238;19.228;2023-05-14T04:47:25;98871.93;;;7.19;77.69
77118;BME280;66072;50.238;19.228;2023-05-14T04:49:53;98873.73;;;7.28;77.61
77118;BME280;66072;50.238;19.228;2023-05-14T04:52:21;98873.16;;;7.37;77.34
77118;BME280;66072;50.238;19.228;2023-05-14T04:54:49;98872.89;;;7.47;77.11
77118;BME280;66072;50.238;19.228;2023-05-14T04:57:17;98875.34;;;7.58;77.00
77118;BME280;66072;50.238;19.228;2023-05-14T04:59:45;98870.77;;;7.68;76.67
77118;BME280;66072;50.238;19.228;2023-05-14T05:02:12;98870.08;;;7.81;76.67
77118;BME280;66072;50.238;19.228;2023-05-14T05:04:40;98870.35;;;7.94;76.28
77118;BME280;66072;50.238;19.228;2023-05-14T05:07:08;98869.89;;;8.10;76.16
77118;BME280;66072;50.238;19.228;2023-05-14T05:09:35;98871.94;;;8.27;75.77
77118;BME280;66072;50.238;19.228;2023-05-14T05:12:03;98868.92;;;8.43;75.20
77118;BME280;66072;50.238;19.228;2023-05-14T05:14:31;98866.52;;;8.59;75.24
77118;BME280;66072;50.238;19.228;2023-05-14T05:16:58;98871.45;;;8.75;74.98
77118;BME280;66072;50.238;19.228;2023-05-14T05:19:26;98867.06;;;8.90;74.17
77118;BME280;66072;50.238;19.228;2023-05-14T05:22:09;98866.88;;;9.05;73.75
77118;BME280;66072;50.238;19.228;2023-05-14T05:24:37;98860.09;;;9.20;73.84
77118;BME280;66072;50.238;19.228;2023-05-14T05:27:05;98850.42;;;9.32;73.29
77118;BME280;66072;50.238;19.228;2023-05-14T05:29:33;98849.09;;;9.46;72.80
77118;BME280;66072;50.238;19.228;2023-05-14T05:32:01;98846.70;;;9.60;72.61
77118;BME280;66072;50.238;19.228;2023-05-14T05:34:28;98848.31;;;9.72;72.22
77118;BME280;66072;50.238;19.228;2023-05-14T05:36:56;98845.48;;;9.84;72.23
77118;BME280;66072;50.238;19.228;2023-05-14T05:39:24;98845.42;;;9.99;71.71
77118;BME280;66072;50.238;19.228;2023-05-14T05:41:52;98845.41;;;10.13;71.57
77118;BME280;66072;50.238;19.228;2023-05-14T05:44:20;98844.89;;;10.27;70.93
77118;BME280;66072;50.238;19.228;2023-05-14T05:46:48;98842.50;;;10.40;70.30
77118;BME280;66072;50.238;19.228;2023-05-14T05:49:15;98846.56;;;10.54;70.18
77118;BME280;66072;50.238;19.228;2023-05-14T05:51:43;98847.05;;;10.67;69.55
77118;BME280;66072;50.238;19.228;2023-05-14T05:54:11;98848.80;;;10.79;68.89
77118;BME280;66072;50.238;19.228;2023-05-14T05:56:38;98848.08;;;10.88;68.48
77118;BME280;66072;50.238;19.228;2023-05-14T05:59:06;98849.48;;;10.99;68.17
77118;BME280;66072;50.238;19.228;2023-05-14T06:01:33;98850.70;;;11.11;67.78
77118;BME280;66072;50.238;19.228;2023-05-14T06:04:01;98852.83;;;11.21;67.10
77118;BME280;66072;50.238;19.228;2023-05-14T06:06:28;98854.28;;;11.31;67.01
77118;BME280;66072;50.238;19.228;2023-05-14T06:08:56;98853.36;;;11.41;66.52
77118;BME280;66072;50.238;19.228;2023-05-14T06:11:23;98852.09;;;11.50;66.24
77118;BME280;66072;50.238;19.228;2023-05-14T06:13:51;98849.39;;;11.61;66.14
77118;BME280;66072;50.238;19.228;2023-05-14T06:16:19;98845.31;;;11.71;65.65
77118;BME280;66072;50.238;19.228;2023-05-14T06:18:46;98840.72;;;11.82;65.92
77118;BME280;66072;50.238;19.228;2023-05-14T06:21:14;98836.95;;;11.94;65.30
77118;BME280;66072;50.238;19.228;2023-05-14T06:23:41;98836.65;;;12.08;64.93
77118;BME280;66072;50.238;19.228;2023-05-14T06:26:09;98828.91;;;12.23;63.32
77118;BME280;66072;50.238;19.228;2023-05-14T06:28:38;98830.34;;;12.43;61.95
77118;BME280;66072;50.238;19.228;2023-05-14T06:31:06;98830.92;;;12.63;60.45
77118;BME280;66072;50.238;19.228;2023-05-14T06:33:34;98831.16;;;12.79;59.48
77118;BME280;66072;50.238;19.228;2023-05-14T06:36:04;98829.88;;;12.87;58.94
77118;BME280;66072;50.238;19.228;2023-05-14T06:38:32;98831.02;;;12.99;59.52
77118;BME280;66072;50.238;19.228;2023-05-14T06:41:00;98830.05;;;13.14;58.74
77118;BME280;66072;50.238;19.228;2023-05-14T06:43:27;98826.96;;;13.32;57.83
77118;BME280;66072;50.238;19.228;2023-05-14T06:45:55;98823.91;;;13.48;57.08
77118;BME280;66072;50.238;19.228;2023-05-14T06:48:23;98820.81;;;13.61;57.00
77118;BME280;66072;50.238;19.228;2023-05-14T06:50:50;98823.09;;;13.76;56.94
77118;BME280;66072;50.238;19.228;2023-05-14T06:53:18;98820.42;;;13.87;56.45
77118;BME280;66072;50.238;19.228;2023-05-14T06:55:47;98820.92;;;13.97;56.57
77118;BME280;66072;50.238;19.228;2023-05-14T06:58:14;98824.22;;;14.06;55.75
77118;BME280;66072;50.238;19.228;2023-05-14T07:00:43;98824.20;;;14.16;54.39
77118;BME280;66072;50.238;19.228;2023-05-14T07:03:11;98816.86;;;14.24;54.05
77118;BME280;66072;50.238;19.228;2023-05-14T07:05:41;98819.59;;;14.27;54.15
77118;BME280;66072;50.238;19.228;2023-05-14T07:08:08;98820.27;;;14.37;54.21
77118;BME280;66072;50.238;19.228;2023-05-14T07:10:36;98818.11;;;14.47;54.35
77118;BME280;66072;50.238;19.228;2023-05-14T07:13:04;98812.95;;;14.60;53.40
77118;BME280;66072;50.238;19.228;2023-05-14T07:15:32;98813.66;;;14.75;52.90
77118;BME280;66072;50.238;19.228;2023-05-14T07:18:02;98813.14;;;14.89;52.34
77118;BME280;66072;50.238;19.228;2023-05-14T07:20:30;98816.43;;;15.06;52.95
77118;BME280;66072;50.238;19.228;2023-05-14T07:22:57;98821.67;;;15.25;53.33
77118;BME280;66072;50.238;19.228;2023-05-14T07:25:25;98824.52;;;15.41;51.97
77118;BME280;66072;50.238;19.228;2023-05-14T07:27:52;98824.60;;;15.46;50.50
77118;BME280;66072;50.238;19.228;2023-05-14T07:30:20;98832.34;;;15.49;49.93
77118;BME280;66072;50.238;19.228;2023-05-14T07:32:48;98835.69;;;15.50;49.84
77118;BME280;66072;50.238;19.228;2023-05-14T07:35:16;98838.70;;;15.54;50.04
77118;BME280;66072;50.238;19.228;2023-05-14T07:37:43;98839.86;;;15.62;50.33
77118;BME280;66072;50.238;19.228;2023-05-14T07:40:11;98844.13;;;15.74;50.21
77118;BME280;66072;50.238;19.228;2023-05-14T07:42:39;98846.42;;;15.87;49.44
77118;BME280;66072;50.238;19.228;2023-05-14T07:45:07;98840.19;;;15.95;49.72
77118;BME280;66072;50.238;19.228;2023-05-14T07:47:35;98841.41;;;16.03;50.03
77118;BME280;66072;50.238;19.228;2023-05-14T07:50:03;98837.73;;;16.13;49.46
77118;BME280;66072;50.238;19.228;2023-05-14T07:52:31;98830.32;;;16.23;49.73
77118;BME280;66072;50.238;19.228;2023-05-14T07:54:58;98827.52;;;16.32;49.34
77118;BME280;66072;50.238;19.228;2023-05-14T07:57:26;98824.84;;;16.41;49.45
77118;BME280;66072;50.238;19.228;2023-05-14T07:59:53;98822.65;;;16.51;48.34
77118;BME280;66072;50.238;19.228;2023-05-14T08:02:21;98814.65;;;16.60;47.66
77118;BME280;66072;50.238;19.228;2023-05-14T08:04:49;98808.27;;;16.76;47.10
77118;BME280;66072;50.238;19.228;2023-05-14T08:07:16;98810.25;;;16.90;45.89
77118;BME280;66072;50.238;19.228;2023-05-14T08:09:44;98801.28;;;16.98;46.10
77118;BME280;66072;50.238;19.228;2023-05-14T08:12:13;98797.08;;;17.06;45.97
77118;BME280;66072;50.238;19.228;2023-05-14T08:14:40;98794.39;;;17.15;45.91
77118;BME280;66072;50.238;19.228;2023-05-14T08:17:08;98787.79;;;17.15;45.70
77118;BME280;66072;50.238;19.228;2023-05-14T08:19:36;98783.17;;;17.15;45.86
77118;BME280;66072;50.238;19.228;2023-05-14T08:22:04;98783.49;;;17.26;46.55
77118;BME280;66072;50.238;19.228;2023-05-14T08:24:31;98781.63;;;17.33;44.68
77118;BME280;66072;50.238;19.228;2023-05-14T08:26:59;98775.95;;;17.47;45.22
77118;BME280;66072;50.238;19.228;2023-05-14T08:29:26;98771.05;;;17.65;45.13
77118;BME280;66072;50.238;19.228;2023-05-14T08:31:54;98768.05;;;17.86;45.20
77118;BME280;66072;50.238;19.228;2023-05-14T08:34:22;98765.59;;;18.03;45.12
77118;BME280;66072;50.238;19.228;2023-05-14T08:36:49;98767.45;;;18.16;44.47
77118;BME280;66072;50.238;19.228;2023-05-14T08:39:17;98764.31;;;18.30;45.28
77118;BME280;66072;50.238;19.228;2023-05-14T08:41:44;98761.52;;;18.47;44.85
77118;BME280;66072;50.238;19.228;2023-05-14T08:44:14;98758.25;;;18.61;43.60
77118;BME280;66072;50.238;19.228;2023-05-14T08:46:44;98756.31;;;18.63;43.40
77118;BME280;66072;50.238;19.228;2023-05-14T08:49:31;98752.15;;;18.70;42.85
77118;BME280;66072;50.238;19.228;2023-05-14T08:52:01;98758.15;;;18.71;43.00
77118;BME280;66072;50.238;19.228;2023-05-14T08:54:29;98756.08;;;18.76;43.11
77118;BME280;66072;50.238;19.228;2023-05-14T08:56:57;98751.42;;;18.87;43.51
77118;BME280;66072;50.238;19.228;2023-05-14T08:59:25;98749.97;;;18.99;42.92
77118;BME280;66072;50.238;19.228;2023-05-14T09:01:54;98745.05;;;19.14;43.03
77118;BME280;66072;50.238;19.228;2023-05-14T09:04:23;98746.98;;;19.31;42.22
77118;BME280;66072;50.238;19.228;2023-05-14T09:06:52;98742.84;;;19.44;40.64
77118;BME280;66072;50.238;19.228;2023-05-14T09:09:20;98745.94;;;19.63;39.97
77118;BME280;66072;50.238;19.228;2023-05-14T09:11:50;98743.01;;;19.78;39.14
77118;BME280;66072;50.238;19.228;2023-05-14T09:14:18;98738.88;;;19.79;38.38
77118;BME280;66072;50.238;19.228;2023-05-14T09:16:49;98738.45;;;19.89;39.01
77118;BME280;66072;50.238;19.228;2023-05-14T09:19:18;98741.20;;;20.06;39.32
77118;BME280;66072;50.238;19.228;2023-05-14T09:21:47;98740.52;;;20.27;39.97
77118;BME280;66072;50.238;19.228;2023-05-14T09:24:19;98742.87;;;20.56;39.48
77118;BME280;66072;50.238;19.228;2023-05-14T09:26:52;98732.41;;;20.85;39.53
77118;BME280;66072;50.238;19.228;2023-05-14T09:29:26;98733.29;;;21.08;37.78
77118;BME280;66072;50.238;19.228;2023-05-14T09:31:55;98728.42;;;21.12;37.32
77118;BME280;66072;50.238;19.228;2023-05-14T09:34:32;98725.11;;;21.10;37.08
77118;BME280;66072;50.238;19.228;2023-05-14T09:37:05;98722.27;;;21.33;38.29
77118;BME280;66072;50.238;19.228;2023-05-14T09:39:34;98726.67;;;21.62;38.18
77118;BME280;66072;50.238;19.228;2023-05-14T09:42:03;98727.78;;;21.82;36.73
77118;BME280;66072;50.238;19.228;2023-05-14T09:44:31;98734.28;;;21.96;34.78
77118;BME280;66072;50.238;19.228;2023-05-14T09:46:58;98726.73;;;22.07;34.49
77118;BME280;66072;50.238;19.228;2023-05-14T09:49:26;98726.09;;;22.24;34.72
77118;BME280;66072;50.238;19.228;2023-05-14T09:51:53;98723.84;;;22.56;34.44
77118;BME280;66072;50.238;19.228;2023-05-14T09:54:22;98718.88;;;23.21;33.95
77118;BME280;66072;50.238;19.228;2023-05-14T09:56:50;98713.38;;;24.39;32.32
77118;BME280;66072;50.238;19.228;2023-05-14T09:59:19;98712.44;;;25.73;31.11
77118;BME280;66072;50.238;19.228;2023-05-14T10:01:47;98708.27;;;26.98;28.85
77118;BME280;66072;50.238;19.228;2023-05-14T10:04:16;98707.09;;;27.90;26.67
77118;BME280;66072;50.238;19.228;2023-05-14T10:06:45;98707.06;;;28.54;24.55
77118;BME280;66072;50.238;19.228;2023-05-14T10:09:15;98697.27;;;29.17;25.63
77118;BME280;66072;50.238;19.228;2023-05-14T10:11:47;98700.09;;;29.85;24.01
77118;BME280;66072;50.238;19.228;2023-05-14T10:14:19;98691.83;;;30.45;23.56
77118;BME280;66072;50.238;19.228;2023-05-14T10:16:49;98688.21;;;31.13;22.95
77118;BME280;66072;50.238;19.228;2023-05-14T10:19:20;98683.59;;;31.83;22.61
77118;BME280;66072;50.238;19.228;2023-05-14T10:21:55;98681.62;;;32.46;21.91
77118;BME280;66072;50.238;19.228;2023-05-14T10:24:23;98677.35;;;32.63;20.76
77118;BME280;66072;50.238;19.228;2023-05-14T10:26:52;98673.36;;;32.71;19.37
77118;BME280;66072;50.238;19.228;2023-05-14T10:29:31;98671.38;;;32.43;18.94
77118;BME280;66072;50.238;19.228;2023-05-14T10:32:03;98671.90;;;32.02;19.07
77118;BME280;66072;50.238;19.228;2023-05-14T10:37:07;98659.95;;;31.23;18.84
77118;BME280;66072;50.238;19.228;2023-05-14T10:42:10;98651.35;;;30.66;19.63
77118;BME280;66072;50.238;19.228;2023-05-14T10:44:53;98647.23;;;30.45;20.18
77118;BME280;66072;50.238;19.228;2023-05-14T10:47:21;98641.92;;;30.52;19.77
77118;BME280;66072;50.238;19.228;2023-05-14T10:49:52;98639.55;;;30.84;20.74
77118;BME280;66072;50.238;19.228;2023-05-14T10:52:20;98642.38;;;31.16;19.55
77118;BME280;66072;50.238;19.228;2023-05-14T10:57:18;98638.80;;;31.43;19.16
77118;BME280;66072;50.238;19.228;2023-05-14T10:59:48;98639.04;;;31.38;19.54
77118;BME280;66072;50.238;19.228;2023-05-14T11:02:22;98635.25;;;31.25;20.05
77118;BME280;66072;50.238;19.228;2023-05-14T11:05:06;98628.27;;;31.19;19.65
77118;BME280;66072;50.238;19.228;2023-05-14T11:07:39;98622.34;;;31.13;20.37
77118;BME280;66072;50.238;19.228;2023-05-14T11:12:41;98626.53;;;30.61;20.15
77118;BME280;66072;50.238;19.228;2023-05-14T11:15:10;98628.67;;;30.30;20.17
77118;BME280;66072;50.238;19.228;2023-05-14T11:17:40;98623.01;;;30.18;20.47
77118;BME280;66072;50.238;19.228;2023-05-14T11:20:09;98620.08;;;29.97;20.31
77118;BME280;66072;50.238;19.228;2023-05-14T11:22:38;98616.96;;;29.75;20.83
77118;BME280;66072;50.238;19.228;2023-05-14T11:25:06;98612.17;;;29.52;20.89
77118;BME280;66072;50.238;19.228;2023-05-14T11:27:37;98607.98;;;29.59;21.48
77118;BME280;66072;50.238;19.228;2023-05-14T11:30:11;98611.64;;;29.66;21.03
77118;BME280;66072;50.238;19.228;2023-05-14T11:32:39;98608.19;;;29.58;21.63
77118;BME280;66072;50.238;19.228;2023-05-14T11:35:08;98606.08;;;29.21;21.42
77118;BME280;66072;50.238;19.228;2023-05-14T11:37:36;98608.00;;;28.86;22.44
77118;BME280;66072;50.238;19.228;2023-05-14T11:40:06;98609.14;;;28.72;22.46
77118;BME280;66072;50.238;19.228;2023-05-14T11:42:35;98612.98;;;28.75;22.88
77118;BME280;66072;50.238;19.228;2023-05-14T11:45:06;98616.00;;;28.85;21.86
77118;BME280;66072;50.238;19.228;2023-05-14T11:47:36;98611.94;;;29.00;21.97
77118;BME280;66072;50.238;19.228;2023-05-14T11:50:04;98610.73;;;29.39;21.90
77118;BME280;66072;50.238;19.228;2023-05-14T11:52:37;98603.98;;;30.10;21.31
77118;BME280;66072;50.238;19.228;2023-05-14T11:55:09;98605.23;;;30.80;20.75
77118;BME280;66072;50.238;19.228;2023-05-14T11:57:37;98605.02;;;31.39;20.51
77118;BME280;66072;50.238;19.228;2023-05-14T12:00:09;98600.38;;;31.88;19.06
77118;BME280;66072;50.238;19.228;2023-05-14T12:02:37;98593.07;;;32.39;18.46
77118;BME280;66072;50.238;19.228;2023-05-14T12:05:06;98588.33;;;32.69;18.35
77118;BME280;66072;50.238;19.228;2023-05-14T12:07:36;98580.95;;;33.04;18.61
77118;BME280;66072;50.238;19.228;2023-05-14T12:10:05;98577.58;;;33.48;18.50
77118;BME280;66072;50.238;19.228;2023-05-14T12:12:34;98571.48;;;33.98;17.58
77118;BME280;66072;50.238;19.228;2023-05-14T12:15:10;98575.45;;;33.95;17.39
77118;BME280;66072;50.238;19.228;2023-05-14T12:17:38;98570.94;;;34.08;17.71
77118;BME280;66072;50.238;19.228;2023-05-14T12:20:10;98564.42;;;34.27;17.58
77118;BME280;66072;50.238;19.228;2023-05-14T12:22:39;98561.05;;;34.37;17.50
77118;BME280;66072;50.238;19.228;2023-05-14T12:25:11;98557.95;;;34.28;17.23
77118;BME280;66072;50.238;19.228;2023-05-14T12:27:40;98549.27;;;33.85;17.32
77118;BME280;66072;50.238;19.228;2023-05-14T12:30:08;98541.70;;;33.73;18.23
77118;BME280;66072;50.238;19.228;2023-05-14T12:32:38;98538.91;;;33.94;18.05
77118;BME280;66072;50.238;19.228;2023-05-14T12:35:07;98533.64;;;34.20;17.83
77118;BME280;66072;50.238;19.228;2023-05-14T12:37:34;98529.25;;;34.52;18.13
77118;BME280;66072;50.238;19.228;2023-05-14T12:40:03;98528.95;;;34.62;16.96
77118;BME280;66072;50.238;19.228;2023-05-14T12:42:31;98522.67;;;34.31;17.19
77118;BME280;66072;50.238;19.228;2023-05-14T12:44:58;98523.33;;;33.86;17.96
77118;BME280;66072;50.238;19.228;2023-05-14T12:47:26;98521.02;;;33.77;17.61
77118;BME280;66072;50.238;19.228;2023-05-14T12:49:53;98520.23;;;34.10;17.65
77118;BME280;66072;50.238;19.228;2023-05-14T12:52:21;98520.84;;;34.78;17.60
77118;BME280;66072;50.238;19.228;2023-05-14T12:55:07;98510.89;;;35.53;16.39
77118;BME280;66072;50.238;19.228;2023-05-14T12:57:36;98512.13;;;35.56;16.23
77118;BME280;66072;50.238;19.228;2023-05-14T13:00:04;98517.33;;;35.48;16.27
77118;BME280;66072;50.238;19.228;2023-05-14T13:02:33;98509.30;;;34.93;17.03
77118;BME280;66072;50.238;19.228;2023-05-14T13:05:10;98497.38;;;34.12;17.63
77118;BME280;66072;50.238;19.228;2023-05-14T13:07:38;98495.81;;;33.93;18.03
77118;BME280;66072;50.238;19.228;2023-05-14T13:10:06;98492.47;;;33.86;18.44
77118;BME280;66072;50.238;19.228;2023-05-14T13:12:34;98485.02;;;33.73;17.96
77118;BME280;66072;50.238;19.228;2023-05-14T13:15:01;98486.06;;;33.07;18.64
77118;BME280;66072;50.238;19.228;2023-05-14T13:17:32;98487.83;;;32.38;19.21
77118;BME280;66072;50.238;19.228;2023-05-14T13:19:59;98489.29;;;31.45;19.97